Time;durP1;ratioP1;P1;durP2;ratioP2;P2;SDS_P1;SDS_P2;PMS_P1;PMS_P2;Temp;Humidity;BMP_temperature;BMP_pressure;BME280_temperature;BME280_humidity;BME280_pressure;Samples;Min_cycle;Max_cycle;Signal;HPM_P1;HPM_P2
2023/01/11 00:00:05;;;;;;;;;;;179.70;2252.80;;;;;;4985704;28;20026;-78
2023/01/11 00:02:33;;;;;;;8.68;5.28;;;179.70;2252.80;;;;;;5004758;28;20355;-80
2023/01/11 00:04:59;;;;;;;9.30;5.45;;;179.70;2252.80;;;;;;5007132;28;20440;-78
2023/01/11 00:07:25;;;;;;;9.02;5.28;;;179.70;2252.80;;;;;;5019759;28;20026;-79
2023/01/11 00:09:50;;;;;;;;;;;179.70;2252.80;;;;;;5009951;28;20473;-78
2023/01/11 00:12:16;;;;;;;10.73;4.75;;;179.70;2252.80;;;;;;5006010;28;19917;-78
2023/01/11 00:14:42;;;;;;;;;;;179.70;2252.80;;;;;;5002491;28;20021;-78
2023/01/11 00:17:08;;;;;;;8.00;4.18;;;179.70;2252.80;;;;;;5006701;28;19958;-79
2023/01/11 00:19:33;;;;;;;9.05;4.93;;;179.60;2252.80;;;;;;5021494;28;20057;-78
2023/01/11 00:21:59;;;;;;;;;;;179.70;2252.80;;;;;;5007312;28;20056;-78
2023/01/11 00:24:25;;;;;;;6.70;4.20;;;179.70;2252.80;;;;;;5004925;28;19906;-78
2023/01/11 00:26:50;;;;;;;;;;;179.70;2252.80;;;;;;4989383;28;20038;-78
2023/01/11 00:29:16;;;;;;;9.32;5.15;;;179.70;2252.80;;;;;;5024402;28;19909;-78
2023/01/11 00:31:42;;;;;;;;;;;179.70;2252.80;;;;;;5007207;28;20535;-78
2023/01/11 00:34:07;;;;;;;7.32;4.13;;;179.70;2252.80;;;;;;5007374;28;19927;-79
2023/01/11 00:36:33;;;;;;;;;;;179.70;2252.80;;;;;;5023124;28;20033;-77
2023/01/11 00:39:00;;;;;;;6.45;3.70;;;179.70;2252.80;;;;;;5006186;28;20446;-78
2023/01/11 00:49:41;;;;;;;12.60;4.93;;;179.70;2073.60;;;;;;5021328;28;20037;-78
2023/01/11 00:52:08;;;;;;;7.18;3.80;;;179.70;2252.80;;;;;;5004739;28;20484;-77
2023/01/11 00:54:41;;;;;;;7.57;4.43;;;179.60;2252.80;;;;;;5004933;28;20026;-78
2023/01/11 00:57:07;;;;;;;8.38;4.55;;;179.70;2252.80;;;;;;5003611;28;20069;-79
2023/01/11 00:59:34;;;;;;;7.88;4.38;;;179.70;2252.80;;;;;;5033648;28;20014;-78
2023/01/11 01:02:00;;;;;;;10.15;4.97;;;179.70;2252.80;;;;;;5007629;28;20120;-79
2023/01/11 01:04:26;;;;;;;;;;;179.60;2252.80;;;;;;5015435;28;20049;-77
2023/01/11 01:06:51;;;;;;;8.65;4.47;;;179.70;2252.80;;;;;;5014855;28;20346;-77
2023/01/11 01:09:17;;;;;;;;;;;179.70;2252.80;;;;;;5015241;28;20028;-77
2023/01/11 01:11:43;;;;;;;8.23;4.78;;;179.60;2252.80;;;;;;5014782;28;20252;-77
2023/01/11 01:14:28;;;;;;;;;;;179.60;2252.80;;;;;;5014753;28;20037;-77
2023/01/11 01:17:08;;;;;;;7.78;4.75;;;179.70;2252.80;;;;;;5014668;28;20362;-77
2023/01/11 01:19:36;;;;;;;9.10;4.38;;;179.70;2252.80;;;;;;5010307;28;20376;-77
2023/01/11 01:22:02;;;;;;;8.43;4.05;;;179.70;1920.00;;;;;;5014021;28;20458;-77
2023/01/11 01:24:29;;;;;;;;;;;179.70;1868.80;;;;;;5014510;28;20052;-77
2023/01/11 01:26:58;;;;;;;;;;;179.70;1996.80;;;;;;5006449;28;19905;-77
2023/01/11 01:29:24;;;;;;;7.68;3.88;;;179.70;2252.80;;;;;;5008585;28;19909;-77
2023/01/11 01:31:50;;;;;;;11.57;4.25;;;179.70;2252.80;;;;;;5014017;28;20027;-77
2023/01/11 01:34:16;;;;;;;;;;;179.70;2252.80;;;;;;5009400;28;20511;-78
2023/01/11 01:36:42;;;;;;;7.63;4.32;;;179.70;2252.80;;;;;;5003597;28;19917;-79
2023/01/11 01:39:10;;;;;;;10.13;4.95;;;179.70;2252.80;;;;;;5003203;28;20025;-78
2023/01/11 01:41:36;;;;;;;6.90;4.25;;;179.70;1996.80;;;;;;5006073;28;20036;-79
2023/01/11 01:44:03;;;;;;;;;;;179.70;1945.60;;;;;;5003404;28;20109;-77
2023/01/11 01:46:31;;;;;;;6.72;3.13;;;179.70;2252.80;;;;;;5008565;28;20367;-77
2023/01/11 01:49:07;;;;;;;8.25;4.55;;;179.70;2252.80;;;;;;5014280;28;20115;-77
2023/01/11 01:51:44;;;;;;;7.93;4.40;;;179.70;2252.80;;;;;;5014739;28;20032;-78
2023/01/11 01:54:15;;;;;;;8.85;4.20;;;179.70;1945.60;;;;;;5009641;28;20263;-78
2023/01/11 01:56:59;;;;;;;8.65;4.78;;;179.70;2176.00;;;;;;5009014;28;20412;-77
2023/01/11 01:59:27;;;;;;;10.63;5.47;;;179.70;2252.80;;;;;;5011716;28;20018;-77
2023/01/11 02:01:53;;;;;;;8.07;4.43;;;179.70;2252.80;;;;;;5016367;28;20026;-76
2023/01/11 02:04:36;;;;;;;9.50;4.70;;;179.70;1894.40;;;;;;5017405;28;20455;-77
2023/01/11 02:07:06;;;;;;;8.98;5.05;;;179.70;1920.00;;;;;;5015498;28;20026;-78
2023/01/11 02:09:46;;;;;;;8.90;5.13;;;179.70;1894.40;;;;;;5017349;28;20033;-78
2023/01/11 02:12:14;;;;;;;11.60;4.97;;;179.70;1920.00;;;;;;5034391;28;20063;-77
2023/01/11 02:14:41;;;;;;;10.55;4.75;;;179.70;1894.40;;;;;;5016875;28;20032;-78
2023/01/11 02:17:08;;;;;;;8.65;4.68;;;179.70;2252.80;;;;;;5034436;28;20087;-77
2023/01/11 02:19:55;;;;;;;8.52;4.50;;;179.70;2252.80;;;;;;5014492;28;20021;-78
2023/01/11 02:22:26;;;;;;;;;;;179.70;2252.80;;;;;;5005611;28;20022;-77
2023/01/11 02:25:13;;;;;;;11.70;5.35;;;179.60;1945.60;;;;;;5034841;28;19905;-77
2023/01/11 02:27:45;;;;;;;12.25;4.88;;;179.70;2252.80;;;;;;5017958;28;20084;-77
2023/01/11 02:30:42;;;;;;;6.85;4.57;;;179.60;2252.80;;;;;;5000553;28;20029;-77
2023/01/11 02:33:26;;;;;;;9.50;4.80;;;179.60;2124.80;;;;;;5016639;28;20116;-79
2023/01/11 02:36:05;;;;;;;9.73;5.15;;;179.60;2252.80;;;;;;5005812;28;20046;-78
2023/01/11 02:38:49;;;;;;;11.30;4.75;;;179.60;2176.00;;;;;;5016564;28;20025;-78
2023/01/11 02:41:24;;;;;;;11.38;5.70;;;179.70;2150.40;;;;;;5016487;28;20508;-78
2023/01/11 02:46:57;;;;;;;11.57;5.95;;;179.60;1971.20;;;;;;5033383;28;20029;-76
2023/01/11 02:49:35;;;;;;;10.05;5.13;;;179.70;1945.60;;;;;;5011821;28;20076;-77
2023/01/11 02:52:17;;;;;;;8.73;4.90;;;179.60;2252.80;;;;;;5008700;28;20025;-78
2023/01/11 02:54:52;;;;;;;9.70;5.38;;;179.60;1868.80;;;;;;5003722;28;20030;-78
2023/01/11 02:57:19;;;;;;;11.68;5.55;;;179.60;2201.60;;;;;;5014675;28;20053;-77
2023/01/11 02:59:48;;;;;;;11.07;5.93;;;179.70;2252.80;;;;;;5016221;28;20025;-76
2023/01/11 03:02:15;;;;;;;9.40;5.60;;;179.70;2252.80;;;;;;5010561;28;20419;-77
2023/01/11 03:04:42;;;;;;;10.38;5.30;;;179.70;2252.80;;;;;;5016448;28;20021;-77
2023/01/11 03:07:22;;;;;;;13.23;5.53;;;179.70;2201.60;;;;;;5015851;28;20041;-77
2023/01/11 03:10:07;;;;;;;9.13;5.22;;;179.70;2252.80;;;;;;5033007;28;20025;-77
2023/01/11 03:12:50;;;;;;;12.15;5.28;;;179.50;2252.80;;;;;;5033688;28;20427;-76
2023/01/11 03:15:37;;;;;;;7.93;4.97;;;179.70;2252.80;;;;;;5015911;28;20014;-77
2023/01/11 03:18:12;;;;;;;8.50;4.97;;;179.60;1996.80;;;;;;5031875;28;20029;-76
2023/01/11 03:20:48;;;;;;;12.05;5.35;;;179.60;2252.80;;;;;;5031303;28;20022;-77
2023/01/11 03:23:28;;;;;;;10.75;5.43;;;179.60;2252.80;;;;;;5015873;28;20025;-76
2023/01/11 03:26:26;;;;;;;8.98;5.35;;;179.60;1894.40;;;;;;5012003;28;20021;-77
2023/01/11 03:29:07;;;;;;;8.80;5.32;;;179.60;2252.80;;;;;;4934089;29;20096;-77
2023/01/11 03:31:38;;;;;;;10.18;5.30;;;179.50;2252.80;;;;;;4933688;29;20035;-76
2023/01/11 03:34:26;;;;;;;8.98;5.47;;;179.50;2252.80;;;;;;4917901;29;20031;-77
2023/01/11 03:37:08;;;;;;;10.35;5.80;;;179.50;2252.80;;;;;;4918169;29;20151;-76
2023/01/11 03:39:41;;;;;;;11.43;5.90;;;179.60;2252.80;;;;;;4917847;29;20216;-77
2023/01/11 03:42:10;;;;;;;9.30;5.43;;;179.60;2099.20;;;;;;4918223;29;20037;-76
2023/01/11 03:44:45;;;;;;;8.80;5.30;;;179.60;1894.40;;;;;;4917804;29;20030;-77
2023/01/11 03:47:14;;;;;;;8.55;5.13;;;179.70;2252.80;;;;;;4916682;29;20068;-77
2023/01/11 03:49:45;;;;;;;9.38;5.82;;;179.50;2252.80;;;;;;4921661;29;20039;-77
2023/01/11 03:52:14;;;;;;;16.30;5.72;;;179.60;2099.20;;;;;;4918239;29;20418;-77
2023/01/11 03:54:42;;;;;;;10.50;5.90;;;179.60;1971.20;;;;;;4934369;29;20035;-78
2023/01/11 03:57:12;;;;;;;8.73;5.78;;;179.50;2252.80;;;;;;4933560;29;20047;-77
2023/01/11 03:59:39;;;;;;;9.75;5.82;;;179.50;1945.60;;;;;;4938893;28;20071;-77
2023/01/11 04:02:17;;;;;;;10.30;5.40;;;179.60;2252.80;;;;;;4938118;29;20055;-77
2023/01/11 04:04:44;;;;;;;11.70;6.07;;;179.60;2252.80;;;;;;4942718;28;20516;-77
2023/01/11 04:07:09;;;;;;;11.60;5.53;;;179.60;2252.80;;;;;;5013875;28;20094;-77
2023/01/11 04:09:35;;;;;;;;;;;179.60;2252.80;;;;;;5015782;28;20495;-78
2023/01/11 04:12:01;;;;;;;10.05;5.68;;;179.60;2252.80;;;;;;5015453;28;19909;-77
2023/01/11 04:14:26;;;;;;;;;;;179.60;2252.80;;;;;;5015887;28;20037;-80
2023/01/11 04:16:52;;;;;;;11.07;5.75;;;179.60;2252.80;;;;;;5016024;28;20007;-80
2023/01/11 04:19:17;;;;;;;;;;;179.60;2252.80;;;;;;5039529;28;20017;-79
2023/01/11 04:21:43;;;;;;;9.20;4.75;;;179.60;2252.80;;;;;;5000809;28;19905;-79
2023/01/11 04:24:09;;;;;;;;;;;179.50;2252.80;;;;;;5013460;28;20096;-77
2023/01/11 04:26:34;;;;;;;9.07;4.93;;;179.50;2252.80;;;;;;5015790;28;20420;-80
2023/01/11 04:29:00;;;;;;;;;;;179.40;2252.80;;;;;;5034349;28;20100;-80
2023/01/11 04:31:26;;;;;;;10.40;5.68;;;179.50;2252.80;;;;;;5019111;28;19954;-81
2023/01/11 04:33:51;;;;;;;;;;;179.50;2252.80;;;;;;5015883;28;20033;-81
2023/01/11 04:36:17;;;;;;;10.10;5.03;;;179.50;2252.80;;;;;;5013513;28;20291;-78
2023/01/11 04:38:43;;;;;;;;;;;179.50;2252.80;;;;;;5016365;28;20026;-79
2023/01/11 04:43:55;;;;;;;8.70;5.18;;;179.40;2252.80;;;;;;5035401;28;20032;-80
2023/01/11 04:46:21;;;;;;;9.73;4.80;;;179.40;1996.80;;;;;;5033604;28;20468;-80
2023/01/11 04:48:47;;;;;;;9.75;5.07;;;179.40;2252.80;;;;;;5033247;28;20130;-80
2023/01/11 04:51:12;;;;;;;;;;;179.50;2252.80;;;;;;5011197;28;20029;-80
2023/01/11 04:53:38;;;;;;;12.10;5.22;;;179.50;2252.80;;;;;;5033321;28;19905;-76
2023/01/11 04:56:04;;;;;;;;;;;179.50;2252.80;;;;;;5015034;28;20461;-78
2023/01/11 04:58:32;;;;;;;11.90;4.87;;;179.50;2252.80;;;;;;5014823;28;20317;-76
2023/01/11 05:00:57;;;;;;;12.63;4.88;;;179.50;2252.80;;;;;;5015553;28;20267;-76
2023/01/11 05:03:23;;;;;;;;;;;179.50;2252.80;;;;;;5033517;28;20021;-76
2023/01/11 05:05:59;;;;;;;11.25;5.65;;;179.70;2252.80;;;;;;5033036;28;19912;-77
2023/01/11 05:08:27;;;;;;;8.45;5.03;;;179.60;2252.80;;;;;;5014663;28;20068;-76
2023/01/11 05:10:58;;;;;;;8.70;4.75;;;179.60;2252.80;;;;;;5002531;28;20057;-76
2023/01/11 05:13:42;;;;;;;14.32;5.80;;;179.60;2252.80;;;;;;5015184;28;20029;-76
2023/01/11 05:16:12;;;;;;;8.50;4.68;;;179.60;2252.80;;;;;;5032871;28;20101;-78
2023/01/11 05:18:52;;;;;;;8.98;4.75;;;179.60;2252.80;;;;;;5009679;28;20037;-77
2023/01/11 05:21:21;;;;;;;8.60;5.15;;;179.60;2252.80;;;;;;5014130;28;20030;-76
2023/01/11 05:23:47;;;;;;;12.40;5.22;;;179.60;2252.80;;;;;;5032797;28;20029;-76
2023/01/11 05:26:18;;;;;;;9.20;5.15;;;179.60;2252.80;;;;;;5034685;28;20028;-78
2023/01/11 05:28:45;;;;;;;13.75;5.38;;;179.70;2252.80;;;;;;5019089;28;20025;-76
2023/01/11 05:31:12;;;;;;;12.10;5.22;;;179.70;2252.80;;;;;;5036753;28;20025;-77
2023/01/11 05:33:37;;;;;;;9.05;5.30;;;179.50;2252.80;;;;;;5018561;28;20121;-76
2023/01/11 05:36:04;;;;;;;;;;;179.60;2252.80;;;;;;5018869;28;20116;-76
2023/01/11 05:38:31;;;;;;;7.13;3.53;;;179.60;2252.80;;;;;;5006009;28;19947;-76
2023/01/11 05:40:59;;;;;;;11.43;4.82;;;179.60;2252.80;;;;;;5018528;28;20060;-76
2023/01/11 05:43:25;;;;;;;10.25;5.78;;;179.60;2252.80;;;;;;5018831;28;20029;-76
2023/01/11 05:45:51;;;;;;;8.52;5.07;;;179.70;2252.80;;;;;;5018702;28;20018;-76
2023/01/11 05:48:17;;;;;;;;;;;179.70;2252.80;;;;;;5019154;28;20121;-76
2023/01/11 05:50:43;;;;;;;12.23;6.70;;;179.60;2252.80;;;;;;5017795;28;19905;-77
2023/01/11 05:53:09;;;;;;;;;;;179.60;2252.80;;;;;;5019284;28;20021;-76
2023/01/11 05:55:35;;;;;;;10.55;5.35;;;179.60;2252.80;;;;;;5036164;28;19905;-76
2023/01/11 05:58:01;;;;;;;;;;;179.60;2252.80;;;;;;5018079;28;20048;-76
2023/01/11 06:00:26;;;;;;;10.52;6.20;;;179.60;2252.80;;;;;;5036160;28;20372;-76
2023/01/11 06:02:52;;;;;;;;;;;179.70;2252.80;;;;;;5036274;28;20036;-76
2023/01/11 06:05:17;;;;;;;10.10;5.43;;;179.70;2252.80;;;;;;5035787;28;20294;-76
2023/01/11 06:07:43;;;;;;;;;;;179.70;2252.80;;;;;;5018469;28;20034;-76
2023/01/11 06:10:09;;;;;;;10.30;5.20;;;179.60;2252.80;;;;;;5017869;28;19935;-76
2023/01/11 06:12:35;;;;;;;11.68;5.00;;;179.60;2252.80;;;;;;5018500;28;20140;-76
2023/01/11 06:15:00;;;;;;;;;;;179.50;2252.80;;;;;;5018591;28;20590;-76
2023/01/11 06:17:26;;;;;;;14.02;5.38;;;179.60;2252.80;;;;;;5035524;28;19995;-76
2023/01/11 06:19:52;;;;;;;;;;;179.60;2252.80;;;;;;5018593;28;20021;-76
2023/01/11 06:22:17;;;;;;;11.48;5.85;;;179.60;2252.80;;;;;;5004917;28;20363;-76
2023/01/11 06:24:43;;;;;;;;;;;179.60;2252.80;;;;;;5018486;28;20458;-76
2023/01/11 06:27:09;;;;;;;9.43;5.65;;;179.60;2252.80;;;;;;5018009;28;19905;-77
2023/01/11 06:29:35;;;;;;;;;;;179.70;2252.80;;;;;;5035452;28;20112;-76
2023/01/11 06:32:00;;;;;;;11.50;5.78;;;179.70;2252.80;;;;;;5017536;28;19995;-76
2023/01/11 06:34:26;;;;;;;;;;;179.70;2252.80;;;;;;5017485;28;20033;-76
2023/01/11 06:36:51;;;;;;;11.48;5.90;;;179.70;2252.80;;;;;;5017248;28;20383;-78
2023/01/11 06:39:18;;;;;;;13.77;7.45;;;179.70;2252.80;;;;;;5016633;28;20129;-76
2023/01/11 06:41:44;;;;;;;13.98;6.45;;;179.70;2252.80;;;;;;5016814;28;20061;-76
2023/01/11 06:44:09;;;;;;;;;;;179.80;2252.80;;;;;;5018294;28;20060;-76
2023/01/11 06:46:35;;;;;;;16.65;7.93;;;179.70;2252.80;;;;;;5033139;28;19905;-76
2023/01/11 06:49:01;;;;;;;;;;;179.60;2252.80;;;;;;5017603;28;20026;-76
2023/01/11 06:51:27;;;;;;;16.60;9.00;;;179.60;2252.80;;;;;;5035244;28;20425;-78
2023/01/11 06:53:52;;;;;;;;;;;179.50;2252.80;;;;;;5035830;28;20026;-76
2023/01/11 06:56:18;;;;;;;16.70;8.73;;;179.60;2252.80;;;;;;5016716;28;20007;-76
2023/01/11 06:58:44;;;;;;;;;;;179.60;2252.80;;;;;;5016749;28;20025;-76
2023/01/11 07:01:09;;;;;;;14.07;7.75;;;179.50;2252.80;;;;;;5017035;28;19944;-76
2023/01/11 07:03:35;;;;;;;13.55;7.90;;;179.50;2252.80;;;;;;5017042;28;20057;-76
2023/01/11 07:06:01;;;;;;;;;;;179.60;2252.80;;;;;;5034927;28;20388;-76
2023/01/11 07:08:27;;;;;;;12.52;7.10;;;179.50;2252.80;;;;;;5031889;28;19918;-76
2023/01/11 07:10:53;;;;;;;11.77;7.10;;;179.50;2252.80;;;;;;5014146;28;20026;-77
2023/01/11 07:13:19;;;;;;;16.80;7.25;;;179.60;2252.80;;;;;;5033046;28;20506;-76
2023/01/11 07:15:48;;;;;;;16.50;9.35;;;179.50;2252.80;;;;;;5034474;28;20021;-77
2023/01/11 07:18:15;;;;;;;12.90;7.65;;;179.60;2252.80;;;;;;5017116;28;20061;-77
2023/01/11 07:20:41;;;;;;;19.88;8.95;;;179.70;2252.80;;;;;;5017262;28;20041;-79
2023/01/11 07:23:07;;;;;;;;;;;179.70;2252.80;;;;;;5017697;28;20506;-76
2023/01/11 07:25:33;;;;;;;31.80;14.20;;;179.60;2252.80;;;;;;5016934;28;19905;-78
2023/01/11 07:28:02;;;;;;;18.35;10.88;;;179.60;2252.80;;;;;;5034831;28;20029;-77
2023/01/11 07:30:30;;;;;;;18.42;10.43;;;179.70;2252.80;;;;;;5016693;28;20022;-76
2023/01/11 07:32:57;;;;;;;16.67;8.50;;;179.70;2252.80;;;;;;5034429;28;20106;-76
2023/01/11 07:35:24;;;;;;;15.75;9.35;;;179.70;2252.80;;;;;;5015646;28;20029;-82
2023/01/11 07:37:50;;;;;;;15.18;8.93;;;179.80;2252.80;;;;;;5034342;28;20100;-81
2023/01/11 07:40:24;;;;;;;;;;;179.80;2252.80;;;;;;5017013;28;20093;-85
2023/01/11 07:43:10;;;;;;;14.85;8.57;;;179.80;2252.80;;;;;;5017039;28;19909;-78
2023/01/11 07:45:38;;;;;;;14.73;7.28;;;179.90;2252.80;;;;;;5016713;28;20119;-77
2023/01/11 07:48:05;;;;;;;21.25;8.65;;;180.00;2252.80;;;;;;5015330;28;20052;-86
2023/01/11 07:50:31;;;;;;;15.57;7.07;;;180.00;2252.80;;;;;;5033140;28;20056;-76
2023/01/11 07:52:57;;;;;;;;;;;180.00;2252.80;;;;;;5013748;28;20152;-80
2023/01/11 07:55:23;;;;;;;15.10;8.00;;;180.10;2252.80;;;;;;5014353;28;19944;-83
2023/01/11 07:57:49;;;;;;;16.88;7.95;;;180.00;2252.80;;;;;;5016450;28;20041;-81
2023/01/11 08:00:15;;;;;;;;;;;180.10;2252.80;;;;;;5017108;28;20027;-79
2023/01/11 08:02:41;;;;;;;14.70;7.78;;;180.00;2252.80;;;;;;5018710;28;19905;-79
2023/01/11 08:05:08;;;;;;;16.42;8.57;;;180.10;2252.80;;;;;;5033954;28;20057;-79
2023/01/11 08:07:34;;;;;;;15.60;8.82;;;204.80;2252.80;;;;;;5011306;28;20479;-87
2023/01/11 08:09:59;;;;;;;;;;;204.80;2252.80;;;;;;5013173;28;20068;-78
2023/01/11 08:15:12;;;;;;;18.65;10.68;;;204.80;2252.80;;;;;;5034057;28;20098;-84
2023/01/11 08:17:38;;;;;;;16.58;9.40;;;204.80;2252.80;;;;;;5015955;28;20046;-77
2023/01/11 08:20:04;;;;;;;;;;;204.90;2252.80;;;;;;5016255;28;20084;-75
2023/01/11 08:22:30;;;;;;;16.58;9.15;;;205.00;2252.80;;;;;;5015845;28;19905;-75
2023/01/11 08:24:55;;;;;;;;;;;205.00;2252.80;;;;;;5016426;28;20475;-75
2023/01/11 08:27:21;;;;;;;16.73;9.05;;;205.10;2252.80;;;;;;5033657;28;19905;-84
2023/01/11 08:29:47;;;;;;;;;;;205.10;2252.80;;;;;;5016454;28;20400;-85
2023/01/11 08:32:12;;;;;;;14.05;9.05;;;205.20;2252.80;;;;;;5016316;28;19905;-82
2023/01/11 08:34:38;;;;;;;;;;;205.30;2252.80;;;;;;5016129;28;20036;-75
2023/01/11 08:37:04;;;;;;;20.02;10.93;;;205.30;2252.80;;;;;;5020711;28;19971;-75
2023/01/11 08:39:30;;;;;;;;;;;205.20;2252.80;;;;;;5016395;28;20175;-78
2023/01/11 08:41:59;;;;;;;17.10;9.15;;;205.10;2252.80;;;;;;5033490;28;19912;-78
2023/01/11 08:44:26;;;;;;;19.48;10.15;;;205.20;2252.80;;;;;;5015801;28;20057;-86
2023/01/11 08:46:51;;;;;;;15.02;9.35;;;205.20;2252.80;;;;;;5033246;28;20040;-75
2023/01/11 08:49:17;;;;;;;;;;;205.20;2252.80;;;;;;5016479;28;20464;-75
2023/01/11 08:51:43;;;;;;;16.20;8.98;;;205.20;2252.80;;;;;;5015773;28;19905;-75
2023/01/11 08:54:10;;;;;;;;;;;205.20;2252.80;;;;;;5033892;28;20029;-76
2023/01/11 08:56:36;;;;;;;16.50;9.73;;;205.10;2252.80;;;;;;5015499;28;19917;-75
2023/01/11 08:59:03;;;;;;;17.98;10.15;;;205.10;2252.80;;;;;;5013395;28;20468;-77
2023/01/11 09:01:29;;;;;;;20.05;10.60;;;205.20;2252.80;;;;;;5019336;28;20029;-78
2023/01/11 09:03:54;;;;;;;;;;;205.00;2252.80;;;;;;5039945;28;20032;-79
2023/01/11 09:06:21;;;;;;;33.58;17.17;;;205.00;2252.80;;;;;;5022375;28;19927;-75
2023/01/11 09:08:47;;;;;;;32.78;15.80;;;205.10;2252.80;;;;;;5021786;28;20029;-75
2023/01/11 09:13:58;;;;;;;26.75;14.48;;;205.20;2252.80;;;;;;5040135;28;20064;-76
2023/01/11 09:16:23;;;;;;;;;;;205.20;2252.80;;;;;;5022668;28;20041;-76
2023/01/11 09:18:49;;;;;;;32.08;19.05;;;205.20;2252.80;;;;;;5021998;28;19909;-82
2023/01/11 09:21:15;;;;;;;;;;;205.20;2252.80;;;;;;5022547;28;20526;-78
2023/01/11 09:23:43;;;;;;;24.52;11.82;;;205.30;2252.80;;;;;;5021990;28;20359;-76
2023/01/11 09:26:13;;;;;;;26.73;14.15;;;205.20;2252.80;;;;;;5022027;28;20028;-76
2023/01/11 09:28:39;;;;;;;33.13;14.98;;;205.20;2252.80;;;;;;5039435;28;20487;-79
2023/01/11 09:31:05;;;;;;;33.40;15.77;;;205.20;2252.80;;;;;;5022348;28;20022;-82
2023/01/11 09:33:31;;;;;;;41.25;18.92;;;205.20;2252.80;;;;;;5021973;28;20051;-82
2023/01/11 09:35:59;;;;;;;;;;;205.30;2252.80;;;;;;5022237;28;20543;-78
2023/01/11 09:38:28;;;;;;;32.47;15.13;;;205.30;2252.80;;;;;;5018028;28;19909;-76
2023/01/11 09:41:18;;;;;;;30.10;15.13;;;205.30;2252.80;;;;;;5021940;28;20487;-80
2023/01/11 09:44:18;;;;;;;25.08;13.63;;;205.40;2252.80;;;;;;5027958;28;20030;-77
2023/01/11 09:46:51;;;;;;;23.40;12.45;;;205.40;2252.80;;;;;;5022626;28;20032;-85
2023/01/11 09:49:25;;;;;;;28.67;13.13;;;205.30;2252.80;;;;;;5020708;28;20105;-76
2023/01/11 09:52:00;;;;;;;22.25;12.98;;;205.30;2252.80;;;;;;5021860;28;20035;-76
2023/01/11 09:54:26;;;;;;;24.95;11.73;;;205.40;2252.80;;;;;;5039642;28;20018;-85
2023/01/11 09:57:22;;;;;;;28.02;13.48;;;205.40;2252.80;;;;;;5039621;28;20088;-84
2023/01/11 10:00:22;;;;;;;24.00;14.43;;;205.40;2252.80;;;;;;4997387;28;20041;-80
2023/01/11 10:02:48;;;;;;;24.10;13.48;;;205.30;2252.80;;;;;;5026912;28;20375;-78
2023/01/11 10:05:54;;;;;;;22.10;12.52;;;205.20;2252.80;;;;;;5022351;28;20072;-82
2023/01/11 10:08:57;;;;;;;24.48;13.25;;;205.40;2252.80;;;;;;5020185;28;20037;-82
2023/01/11 10:11:51;;;;;;;20.40;11.10;;;205.50;2252.80;;;;;;4962565;28;20047;-77
2023/01/11 10:14:37;;;;;;;23.23;11.13;;;205.40;2252.80;;;;;;4947698;28;20030;-76
2023/01/11 10:17:15;;;;;;;23.50;12.75;;;205.50;2252.80;;;;;;4975718;28;20090;-86
2023/01/11 10:19:52;;;;;;;23.55;13.52;;;205.50;2252.80;;;;;;4975372;28;20057;-83
2023/01/11 10:22:32;;;;;;;21.60;10.75;;;205.70;2252.80;;;;;;4959304;28;20035;-75
2023/01/11 10:25:17;;;;;;;23.13;12.60;;;205.70;2252.80;;;;;;4958666;28;20130;-80
2023/01/11 10:27:59;;;;;;;30.42;13.90;;;205.60;2252.80;;;;;;4959267;28;20470;-77
2023/01/11 10:34:05;;;;;;;23.17;13.23;;;205.70;2252.80;;;;;;4971323;28;20378;-76
2023/01/11 10:40:05;;;;;;;21.13;11.05;;;205.70;2252.80;;;;;;4974891;28;20058;-77
2023/01/11 10:42:42;;;;;;;22.08;11.18;;;205.70;2252.80;;;;;;4965515;28;20030;-76
2023/01/11 10:45:26;;;;;;;21.45;13.13;;;205.70;2252.80;;;;;;4963525;28;20019;-76
2023/01/11 10:48:19;;;;;;;22.60;11.45;;;230.40;2252.80;;;;;;5010656;28;20053;-82
2023/01/11 10:51:00;;;;;;;18.48;10.68;;;230.50;2252.80;;;;;;5017670;28;20048;-76
2023/01/11 10:53:55;;;;;;;20.15;11.70;;;230.40;2252.80;;;;;;5035619;28;20018;-84
2023/01/11 10:56:45;;;;;;;23.98;13.05;;;230.50;2252.80;;;;;;4931025;29;20043;-77
2023/01/11 10:59:16;;;;;;;27.08;13.90;;;230.40;2252.80;;;;;;4955186;28;20128;-78
2023/01/11 11:01:58;;;;;;;30.33;15.82;;;230.40;2252.80;;;;;;4939313;29;20035;-81
2023/01/11 11:04:53;;;;;;;26.35;14.77;;;230.40;2252.80;;;;;;4939049;29;20114;-77
2023/01/11 11:07:32;;;;;;;24.73;12.27;;;230.40;2252.80;;;;;;4879277;29;20194;-78
2023/01/11 11:10:21;;;;;;;24.27;12.80;;;230.40;2252.80;;;;;;4879422;29;20048;-77
2023/01/11 11:13:07;;;;;;;27.52;14.45;;;230.40;2252.80;;;;;;4879244;29;20514;-76
2023/01/11 11:15:36;;;;;;;23.90;13.20;;;230.40;2252.80;;;;;;4879173;29;20029;-78
2023/01/11 11:18:02;;;;;;;21.55;13.25;;;205.70;2252.80;;;;;;4863326;29;20436;-76
2023/01/11 11:20:29;;;;;;;;;;;230.40;2252.80;;;;;;4879220;29;20045;-76
2023/01/11 11:22:56;;;;;;;21.45;11.15;;;230.40;2252.80;;;;;;4879064;29;20358;-77
2023/01/11 11:25:36;;;;;;;24.25;13.68;;;205.70;2252.80;;;;;;4879253;29;20480;-77
2023/01/11 11:28:13;;;;;;;20.83;10.77;;;230.40;2252.80;;;;;;4863449;29;20135;-78
2023/01/11 11:30:45;;;;;;;21.77;13.30;;;230.40;2252.80;;;;;;4878612;29;20032;-77
2023/01/11 11:33:35;;;;;;;21.75;11.90;;;230.50;2252.80;;;;;;4920258;28;20035;-79
2023/01/11 11:36:13;;;;;;;20.17;11.48;;;230.50;2252.80;;;;;;4969544;28;20489;-83
2023/01/11 11:39:18;;;;;;;19.80;11.20;;;230.40;2252.80;;;;;;4951538;28;20035;-82
2023/01/11 11:41:49;;;;;;;21.80;12.15;;;230.50;2252.80;;;;;;4951801;28;20073;-81
2023/01/11 11:44:27;;;;;;;20.85;12.77;;;230.50;2252.80;;;;;;5018300;28;20499;-80
2023/01/11 11:46:58;;;;;;;23.67;13.52;;;230.50;2252.80;;;;;;5034928;28;20029;-78
2023/01/11 11:49:25;;;;;;;26.25;14.40;;;230.60;2252.80;;;;;;5016916;28;20021;-81
2023/01/11 11:51:52;;;;;;;24.88;14.32;;;230.60;2252.80;;;;;;5030425;28;20044;-78
2023/01/11 11:54:30;;;;;;;33.80;17.90;;;230.60;2252.80;;;;;;5016370;28;20091;-76
2023/01/11 11:56:59;;;;;;;26.40;14.82;;;230.70;2252.80;;;;;;5015334;28;20072;-78
2023/01/11 11:59:28;;;;;;;26.33;12.70;;;230.60;2252.80;;;;;;5028659;28;20125;-77
2023/01/11 12:01:59;;;;;;;24.38;13.13;;;230.60;2252.80;;;;;;5015355;28;20124;-78
2023/01/11 12:04:58;;;;;;;25.58;13.40;;;230.60;2252.80;;;;;;5015730;28;20399;-75
2023/01/11 12:07:33;;;;;;;22.02;13.35;;;230.60;2252.80;;;;;;4937176;29;20035;-77
2023/01/11 12:10:04;;;;;;;28.55;14.02;;;230.60;2252.80;;;;;;4960558;28;20043;-77
2023/01/11 12:12:32;;;;;;;22.83;12.73;;;230.60;2252.80;;;;;;4954048;28;20493;-78
2023/01/11 12:15:13;;;;;;;26.90;14.75;;;230.60;2252.80;;;;;;4964231;28;20558;-78
2023/01/11 12:17:39;;;;;;;21.33;13.65;;;230.70;2252.80;;;;;;4957086;28;20126;-79
2023/01/11 12:20:27;;;;;;;25.20;14.30;;;230.70;2252.80;;;;;;4953552;29;20122;-78
2023/01/11 12:23:11;;;;;;;26.30;13.95;;;230.90;2252.80;;;;;;4967942;28;20533;-81
2023/01/11 12:26:02;;;;;;;39.17;21.73;;;230.90;2252.80;;;;;;4949935;28;20019;-78
2023/01/11 12:28:55;;;;;;;47.33;31.55;;;230.90;2252.80;;;;;;4966712;28;20058;-78
2023/01/11 12:31:58;;;;;;;32.10;20.02;;;230.90;2252.80;;;;;;4955085;28;20031;-79
2023/01/11 12:34:48;;;;;;;33.83;17.33;;;230.90;2252.80;;;;;;4968979;28;20030;-77
2023/01/11 12:37:16;;;;;;;26.25;15.05;;;230.90;2252.80;;;;;;4953749;28;20085;-78
2023/01/11 12:39:53;;;;;;;29.55;15.18;;;230.90;2252.80;;;;;;4951784;28;20026;-78
2023/01/11 12:42:37;;;;;;;24.27;14.05;;;230.90;2252.80;;;;;;4981853;28;20037;-83
2023/01/11 12:45:33;;;;;;;30.52;17.17;;;230.90;2252.80;;;;;;5004048;28;20112;-76
2023/01/11 12:48:21;;;;;;;28.10;16.42;;;231.00;2252.80;;;;;;5033451;28;20013;-83
2023/01/11 12:51:02;;;;;;;30.83;15.23;;;231.00;2252.80;;;;;;5015571;28;20033;-80
2023/01/11 12:53:31;;;;;;;32.45;17.65;;;231.00;2252.80;;;;;;5015939;28;20033;-78
2023/01/11 12:56:23;;;;;;;29.23;16.25;;;231.00;2252.80;;;;;;5015184;28;20029;-78
2023/01/11 12:59:08;;;;;;;24.63;15.73;;;231.00;2252.80;;;;;;4918638;29;20044;-78
2023/01/11 13:01:55;;;;;;;30.33;15.80;;;231.10;2252.80;;;;;;4927834;29;20023;-78
2023/01/11 13:05:01;;;;;;;22.10;12.05;;;231.10;2252.80;;;;;;4936403;29;20028;-80
2023/01/11 13:08:03;;;;;;;40.22;18.08;;;231.10;2252.80;;;;;;4952934;29;20043;-78
2023/01/11 13:11:10;;;;;;;38.30;20.63;;;231.10;2252.80;;;;;;4936710;29;20078;-78
2023/01/11 13:13:59;;;;;;;20.65;11.05;;;231.10;2252.80;;;;;;4937080;29;20027;-77